createdAt,value
2019-01-03T00:00:27.859Z,0
2019-01-03T00:01:26.404Z,0
2019-01-03T00:02:24.974Z,0
2019-01-03T00:03:23.746Z,0
2019-01-03T00:24:01.725Z,0
2019-01-03T00:25:00.263Z,0
2019-01-03T00:25:58.809Z,0
2019-01-03T00:26:57.656Z,0
2019-01-03T00:27:56.199Z,0
2019-01-03T00:28:54.955Z,0
2019-01-03T00:29:53.531Z,0
2019-01-03T00:30:52.169Z,0
2019-01-03T00:31:50.714Z,0
2019-01-03T00:32:49.693Z,0
2019-01-03T00:33:48.211Z,0
2019-01-03T00:34:46.784Z,0
2019-01-03T00:35:45.617Z,0
2019-01-03T00:36:44.143Z,0
2019-01-03T00:37:42.746Z,0
2019-01-03T00:38:41.242Z,0
2019-01-03T00:39:39.789Z,0
2019-01-03T00:40:38.324Z,0
2019-01-03T00:41:36.899Z,0
2019-01-03T00:42:35.758Z,0
2019-01-03T00:43:34.292Z,0
2019-01-03T00:44:32.966Z,0
2019-01-03T00:47:16.326Z,0
2019-01-03T00:48:14.863Z,0
2019-01-03T00:49:13.710Z,0
2019-01-03T00:50:12.242Z,0
2019-01-03T00:51:10.837Z,0
2019-01-03T00:52:09.710Z,0
2019-01-03T00:53:08.259Z,0
2019-01-03T00:54:06.802Z,0
2019-01-03T00:55:05.347Z,0
2019-01-03T00:56:03.921Z,0
2019-01-03T00:57:02.622Z,0
2019-01-03T00:58:01.452Z,0
2019-01-03T00:58:59.991Z,0
2019-01-03T00:59:58.520Z,0
2019-01-03T01:00:57.409Z,0
2019-01-03T01:01:55.977Z,0
2019-01-03T01:02:54.838Z,0
2019-01-03T01:03:53.657Z,0
2019-01-03T01:04:52.206Z,0
2019-01-03T01:05:50.752Z,0
2019-01-03T01:06:49.581Z,0
2019-01-03T01:07:48.124Z,0
2019-01-03T01:08:46.746Z,0
2019-01-03T01:09:45.639Z,0
2019-01-03T01:10:44.208Z,0
2019-01-03T01:11:42.802Z,0
2019-01-03T01:12:41.481Z,0
2019-01-03T01:13:40.009Z,0
2019-01-03T01:14:38.586Z,0
2019-01-03T01:15:37.128Z,0
2019-01-03T01:16:35.684Z,0
2019-01-03T01:17:34.242Z,0
2019-01-03T01:18:32.818Z,0
2019-01-03T01:19:31.792Z,0
2019-01-03T01:20:30.322Z,0
2019-01-03T01:21:29.003Z,0
2019-01-03T01:22:27.673Z,0
2019-01-03T01:23:26.277Z,0
2019-01-03T01:24:24.836Z,0
2019-01-03T01:25:23.581Z,0
2019-01-03T01:26:22.409Z,0
2019-01-03T01:27:21.001Z,0
2019-01-03T01:28:19.711Z,0
2019-01-03T01:29:18.249Z,0
2019-01-03T01:30:16.803Z,0
2019-01-03T01:31:15.325Z,0
2019-01-03T01:32:13.933Z,0
2019-01-03T01:33:12.478Z,0
2019-01-03T01:34:10.994Z,0
2019-01-03T01:35:09.891Z,0
2019-01-03T01:36:08.459Z,0
2019-01-03T01:37:07.100Z,0
2019-01-03T01:38:05.814Z,0
2019-01-03T01:39:04.415Z,0
2019-01-03T01:40:02.979Z,0
2019-01-03T01:41:01.559Z,0
2019-01-03T01:42:00.138Z,0
2019-01-03T01:42:58.679Z,0
2019-01-03T01:43:57.818Z,0
2019-01-03T01:44:56.311Z,0
2019-01-03T01:45:54.975Z,0
2019-01-03T01:46:53.619Z,0
2019-01-03T01:47:52.232Z,0
2019-01-03T01:48:50.802Z,0
2019-01-03T01:49:49.860Z,0
2019-01-03T01:50:48.416Z,0
2019-01-03T01:51:47.079Z,0
2019-01-03T01:52:45.657Z,0
2019-01-03T01:53:44.176Z,0
2019-01-03T01:54:42.756Z,0
2019-01-03T01:55:41.291Z,0
2019-01-03T01:56:39.851Z,0
2019-01-03T01:57:38.346Z,0
2019-01-03T01:58:36.901Z,0
2019-01-03T01:59:35.505Z,0
2019-01-03T02:00:34.142Z,0
2019-01-03T02:01:32.700Z,0
2019-01-03T02:02:31.552Z,0
2019-01-03T02:03:30.268Z,0
2019-01-03T02:04:28.833Z,0
2019-01-03T02:05:27.392Z,0
2019-01-03T02:06:25.976Z,0
2019-01-03T02:07:24.546Z,0
2019-01-03T02:08:23.155Z,0
2019-01-03T02:09:21.965Z,0
2019-01-03T02:10:20.525Z,0
2019-01-03T02:11:19.442Z,0
2019-01-03T02:12:17.982Z,0
2019-01-03T02:13:16.527Z,0
2019-01-03T02:14:15.100Z,0
2019-01-03T02:15:13.617Z,0
2019-01-03T02:16:12.152Z,0
2019-01-03T02:17:10.739Z,0
2019-01-03T02:18:09.716Z,0
2019-01-03T02:19:08.483Z,0
2019-01-03T02:20:07.068Z,0
2019-01-03T02:21:05.620Z,0
2019-01-03T02:22:04.214Z,0
2019-01-03T02:23:02.766Z,0
2019-01-03T02:24:01.774Z,0
2019-01-03T02:25:00.294Z,0
2019-01-03T02:25:58.837Z,0
2019-01-03T02:26:57.704Z,0
2019-01-03T02:27:57.282Z,0
2019-01-03T02:28:55.813Z,0
2019-01-03T02:29:54.339Z,0
2019-01-03T02:30:52.954Z,0
2019-01-03T02:31:51.730Z,0
2019-01-03T02:32:50.292Z,0
2019-01-03T02:33:48.940Z,0
2019-01-03T02:34:47.802Z,0
2019-01-03T02:35:46.317Z,0
2019-01-03T02:36:44.865Z,0
2019-01-03T02:37:43.385Z,0
2019-01-03T02:38:41.937Z,0
2019-01-03T02:39:40.570Z,0
2019-01-03T02:40:39.127Z,0
2019-01-03T02:41:38.044Z,0
2019-01-03T02:42:36.593Z,0
2019-01-03T02:43:35.451Z,0
2019-01-03T02:44:33.962Z,0
2019-01-03T02:45:32.526Z,0
2019-01-03T02:46:31.039Z,0
2019-01-03T02:47:29.586Z,0
2019-01-03T02:48:28.191Z,0
2019-01-03T02:49:26.680Z,0
2019-01-03T02:50:25.743Z,0
2019-01-03T02:51:24.316Z,0
2019-01-03T02:52:23.041Z,0
2019-01-03T02:53:21.591Z,0
2019-01-03T02:54:20.161Z,0
2019-01-03T02:55:18.696Z,0
2019-01-03T02:56:17.206Z,0
2019-01-03T02:57:15.748Z,0
2019-01-03T02:58:14.293Z,0
2019-01-03T02:59:12.841Z,0
2019-01-03T03:00:12.201Z,0
2019-01-03T03:01:10.761Z,0
2019-01-03T03:02:09.289Z,0
2019-01-03T03:03:07.841Z,0
2019-01-03T03:04:06.380Z,0
2019-01-03T03:05:04.931Z,0
2019-01-03T03:06:03.925Z,0
2019-01-03T03:07:02.484Z,0
2019-01-03T03:08:01.196Z,0
2019-01-03T03:08:59.844Z,0
2019-01-03T03:09:58.411Z,0
2019-01-03T03:10:56.939Z,0
2019-01-03T03:11:55.468Z,0
2019-01-03T03:12:54.010Z,0
2019-01-03T03:13:52.567Z,0
2019-01-03T03:14:51.147Z,0
2019-01-03T03:15:49.959Z,0
2019-01-03T03:16:48.481Z,0
2019-01-03T03:17:47.148Z,0
2019-01-03T03:18:45.906Z,0
2019-01-03T03:19:44.490Z,0
2019-01-03T03:20:43.032Z,0
2019-01-03T03:21:41.817Z,0
2019-01-03T03:22:40.493Z,0
2019-01-03T03:23:39.222Z,0
2019-01-03T03:24:37.908Z,0
2019-01-03T03:25:36.447Z,0
2019-01-03T03:26:35.093Z,0
2019-01-03T03:27:33.655Z,0
2019-01-03T03:28:32.226Z,0
2019-01-03T03:29:30.747Z,0
2019-01-03T03:30:29.286Z,0
2019-01-03T03:31:27.824Z,0
2019-01-03T03:32:26.360Z,0
2019-01-03T03:33:24.906Z,0
2019-01-03T03:34:23.781Z,0
2019-01-03T03:35:22.417Z,0
2019-01-03T03:36:20.967Z,0
2019-01-03T03:37:19.756Z,0
2019-01-03T03:38:18.311Z,0
2019-01-03T03:39:16.887Z,0
2019-01-03T03:40:15.434Z,0
2019-01-03T03:41:13.971Z,0
2019-01-03T03:42:12.573Z,0
2019-01-03T03:44:52.972Z,0
2019-01-03T03:45:51.779Z,0
2019-01-03T03:46:50.446Z,0
2019-01-03T03:47:49.028Z,0
2019-01-03T03:48:47.870Z,0
2019-01-03T03:49:46.410Z,0
2019-01-03T03:50:45.150Z,0
2019-01-03T03:51:44.195Z,0
2019-01-03T03:52:42.747Z,0
2019-01-03T03:53:41.610Z,0
2019-01-03T03:54:40.160Z,0
2019-01-03T03:55:38.717Z,0
2019-01-03T03:56:37.532Z,0
2019-01-03T03:57:36.066Z,0
2019-01-03T03:58:34.687Z,0
2019-01-03T03:59:33.690Z,0
2019-01-03T04:00:32.242Z,0
2019-01-03T04:01:30.795Z,0
2019-01-03T04:02:29.560Z,0
2019-01-03T04:03:28.107Z,0
2019-01-03T04:04:26.674Z,0
2019-01-03T04:05:25.211Z,0
2019-01-03T04:06:23.770Z,0
2019-01-03T04:07:22.328Z,0
2019-01-03T04:08:20.860Z,0
2019-01-03T04:09:19.875Z,0
2019-01-03T04:10:18.449Z,0
2019-01-03T04:12:41.211Z,0
2019-01-03T04:13:40.018Z,0
2019-01-03T04:14:38.556Z,0
2019-01-03T04:15:37.274Z,0
2019-01-03T04:16:36.024Z,0
2019-01-03T04:17:34.579Z,0
2019-01-03T04:18:33.132Z,0
2019-01-03T04:19:31.704Z,0
2019-01-03T04:20:30.272Z,0
2019-01-03T04:21:28.830Z,0
2019-01-03T04:22:27.375Z,0
2019-01-03T04:23:25.949Z,0
2019-01-03T04:24:24.516Z,0
2019-01-03T04:25:23.035Z,0
2019-01-03T04:26:21.842Z,0
2019-01-03T04:27:20.421Z,0
2019-01-03T04:28:19.308Z,0
2019-01-03T04:29:17.885Z,0
2019-01-03T04:30:16.447Z,0
2019-01-03T04:31:15.045Z,0
2019-01-03T04:32:13.912Z,0
2019-01-03T04:33:12.474Z,0
2019-01-03T04:34:11.434Z,0
2019-01-03T04:35:09.994Z,0
2019-01-03T04:36:08.536Z,0
2019-01-03T04:37:07.087Z,0
2019-01-03T04:38:05.722Z,0
2019-01-03T04:39:04.262Z,0
2019-01-03T04:40:02.793Z,0
2019-01-03T04:41:01.693Z,0
2019-01-03T04:42:00.235Z,0
2019-01-03T04:42:58.864Z,0
2019-01-03T04:43:57.615Z,0
2019-01-03T04:44:56.372Z,0
2019-01-03T04:45:54.926Z,0
2019-01-03T04:46:53.764Z,0
2019-01-03T04:47:52.298Z,0
2019-01-03T04:48:50.824Z,0
2019-01-03T04:49:49.639Z,0
2019-01-03T04:50:48.446Z,0
2019-01-03T04:51:46.928Z,0
2019-01-03T04:52:45.882Z,0
2019-01-03T04:53:44.430Z,0
2019-01-03T04:54:43.241Z,0
2019-01-03T04:55:41.780Z,0
2019-01-03T04:56:40.298Z,0
2019-01-03T04:57:38.854Z,0
2019-01-03T04:58:37.407Z,0
2019-01-03T04:59:35.982Z,0
2019-01-03T05:00:34.516Z,0
2019-01-03T05:01:33.050Z,0
2019-01-03T05:02:31.828Z,0
2019-01-03T05:03:30.368Z,0
2019-01-03T05:04:29.117Z,0
2019-01-03T05:05:27.862Z,0
2019-01-03T05:06:26.429Z,0
2019-01-03T05:07:25.159Z,0
2019-01-03T05:08:24.006Z,0
2019-01-03T05:09:22.566Z,0
2019-01-03T05:10:21.213Z,0
2019-01-03T05:11:19.942Z,0
2019-01-03T05:12:18.477Z,0
2019-01-03T05:13:17.051Z,0
2019-01-03T05:14:15.594Z,0
2019-01-03T05:15:14.138Z,0
2019-01-03T05:16:12.688Z,0
2019-01-03T05:17:11.310Z,0
2019-01-03T05:18:10.080Z,0
2019-01-03T05:19:08.617Z,0
2019-01-03T05:20:07.321Z,0
2019-01-03T05:21:05.970Z,0
2019-01-03T05:22:04.504Z,0
2019-01-03T05:23:03.133Z,0
2019-01-03T05:24:01.688Z,0
2019-01-03T05:25:00.260Z,0
2019-01-03T05:25:58.741Z,0
2019-01-03T05:26:57.398Z,0
2019-01-03T05:27:56.202Z,0
2019-01-03T05:28:54.662Z,0
2019-01-03T05:29:53.446Z,0
2019-01-03T05:30:52.148Z,0
2019-01-03T05:31:50.683Z,0
2019-01-03T05:32:49.327Z,0
2019-01-03T05:33:47.937Z,0
2019-01-03T05:34:46.496Z,0
2019-01-03T05:35:45.047Z,0
2019-01-03T05:36:43.914Z,0
2019-01-03T05:37:42.584Z,0
2019-01-03T05:38:41.145Z,0
2019-01-03T05:39:39.978Z,0
2019-01-03T05:40:38.531Z,0
2019-01-03T05:41:37.070Z,0
2019-01-03T05:42:35.595Z,0
2019-01-03T05:43:34.161Z,0
2019-01-03T05:44:32.708Z,0
2019-01-03T05:45:31.610Z,0
2019-01-03T05:46:30.247Z,0
2019-01-03T05:47:28.862Z,0
2019-01-03T05:48:27.561Z,0
2019-01-03T05:49:26.094Z,0
2019-01-03T05:50:24.634Z,0
2019-01-03T05:51:23.170Z,0
2019-01-03T05:52:21.712Z,0
2019-01-03T05:53:20.223Z,0
2019-01-03T05:54:18.763Z,0
2019-01-03T05:55:17.305Z,0
2019-01-03T05:56:16.019Z,0
2019-01-03T05:57:14.533Z,0
2019-01-03T05:58:13.471Z,0
2019-01-03T05:59:12.063Z,0
2019-01-03T06:00:10.657Z,0
2019-01-03T06:01:09.250Z,0
2019-01-03T06:02:07.800Z,0
2019-01-03T06:03:06.348Z,0
2019-01-03T06:04:04.903Z,0
2019-01-03T06:05:03.418Z,0
2019-01-03T06:06:01.973Z,0
2019-01-03T06:07:00.500Z,0
2019-01-03T06:07:59.034Z,0
2019-01-03T06:08:57.583Z,0
2019-01-03T06:09:56.316Z,0
2019-01-03T06:10:54.916Z,0
2019-01-03T06:11:53.634Z,0
2019-01-03T06:12:52.161Z,0
2019-01-03T06:13:50.703Z,0
2019-01-03T06:14:49.497Z,0
2019-01-03T06:15:48.043Z,0
2019-01-03T06:16:46.579Z,0
2019-01-03T06:17:45.132Z,0
2019-01-03T06:18:43.654Z,0
2019-01-03T06:19:42.176Z,0
2019-01-03T06:20:40.696Z,0
2019-01-03T06:21:39.271Z,0
2019-01-03T06:22:37.809Z,0
2019-01-03T06:23:36.358Z,0
2019-01-03T06:24:34.881Z,0
2019-01-03T06:25:33.866Z,0
2019-01-03T06:26:32.418Z,0
2019-01-03T06:27:30.950Z,0
2019-01-03T06:28:29.674Z,0
2019-01-03T06:29:28.217Z,0
2019-01-03T06:30:26.731Z,0
2019-01-03T06:31:25.344Z,0
2019-01-03T06:32:23.884Z,0
2019-01-03T06:33:22.504Z,0
2019-01-03T06:34:21.549Z,0
2019-01-03T06:35:20.247Z,0
2019-01-03T06:36:18.825Z,0
2019-01-03T06:37:17.444Z,0
2019-01-03T06:38:15.967Z,0
2019-01-03T06:39:14.500Z,0
2019-01-03T06:40:13.026Z,0
2019-01-03T06:41:11.564Z,0
2019-01-03T06:42:10.173Z,0
2019-01-03T06:43:08.729Z,0
2019-01-03T06:44:07.276Z,0
2019-01-03T06:45:06.103Z,0
2019-01-03T06:46:04.676Z,0
2019-01-03T06:47:03.585Z,0
2019-01-03T06:48:02.158Z,0
2019-01-03T06:49:00.772Z,0
2019-01-03T06:49:59.876Z,0
2019-01-03T06:50:58.584Z,0
2019-01-03T06:51:57.153Z,0
2019-01-03T06:52:55.783Z,0
2019-01-03T06:53:54.309Z,0
2019-01-03T06:54:53.444Z,0
2019-01-03T06:55:52.048Z,0
2019-01-03T06:56:50.668Z,0
2019-01-03T06:57:49.246Z,0
2019-01-03T06:58:47.894Z,0
2019-01-03T06:59:46.442Z,4
2019-01-03T07:00:44.989Z,4
2019-01-03T07:01:43.829Z,0
2019-01-03T07:02:42.396Z,0
2019-01-03T07:03:41.004Z,0
2019-01-03T07:04:39.957Z,4
2019-01-03T07:05:38.533Z,0
2019-01-03T07:06:37.147Z,4
2019-01-03T07:07:35.964Z,4
2019-01-03T07:08:34.514Z,4
2019-01-03T07:09:33.152Z,4
2019-01-03T07:10:32.117Z,4
2019-01-03T07:11:30.646Z,8
2019-01-03T07:12:29.249Z,8
2019-01-03T07:13:27.959Z,4
2019-01-03T07:14:26.503Z,4
2019-01-03T07:15:25.219Z,8
2019-01-03T07:16:24.108Z,8
2019-01-03T07:17:22.638Z,8
2019-01-03T07:18:21.255Z,8
2019-01-03T07:19:20.036Z,12
2019-01-03T07:20:18.581Z,12
2019-01-03T07:21:17.275Z,12
2019-01-03T07:22:16.190Z,16
2019-01-03T07:23:14.802Z,16
2019-01-03T07:24:13.795Z,16
2019-01-03T07:25:12.372Z,12
2019-01-03T07:27:28.248Z,12
2019-01-03T07:28:26.872Z,12
2019-01-03T07:29:25.927Z,12
2019-01-03T07:30:24.475Z,16
2019-01-03T07:31:23.150Z,12
2019-01-03T07:32:21.745Z,12
2019-01-03T07:33:20.334Z,16
2019-01-03T07:34:18.856Z,16
2019-01-03T07:35:17.403Z,16
2019-01-03T07:36:16.118Z,16
2019-01-03T07:37:14.656Z,16
2019-01-03T07:38:13.543Z,16
2019-01-03T07:39:12.269Z,20
2019-01-03T07:40:10.900Z,20
2019-01-03T07:41:09.475Z,20
2019-01-03T07:42:08.045Z,24
2019-01-03T07:43:06.611Z,28
2019-01-03T07:44:05.176Z,24
2019-01-03T07:45:03.974Z,32
2019-01-03T07:46:02.523Z,32
2019-01-03T07:47:01.168Z,40
2019-01-03T07:48:00.016Z,44
2019-01-03T07:48:58.584Z,48
2019-01-03T07:49:57.236Z,52
2019-01-03T07:50:56.046Z,56
2019-01-03T07:51:54.600Z,60
2019-01-03T07:52:53.581Z,60
2019-01-03T07:53:52.147Z,64
2019-01-03T07:54:50.723Z,68
2019-01-03T07:55:49.762Z,72
2019-01-03T07:56:48.357Z,76
2019-01-03T07:57:46.999Z,76
2019-01-03T07:58:45.714Z,80
2019-01-03T07:59:44.275Z,88
2019-01-03T08:00:42.884Z,88
2019-01-03T08:01:41.827Z,96
2019-01-03T08:02:40.374Z,96
2019-01-03T08:03:39.012Z,92
2019-01-03T08:04:37.752Z,96
2019-01-03T08:05:36.354Z,92
2019-01-03T08:06:34.912Z,88
2019-01-03T08:07:33.948Z,88
2019-01-03T08:08:32.491Z,96
2019-01-03T08:09:31.202Z,96
2019-01-03T08:10:29.807Z,108
2019-01-03T08:11:28.458Z,120
2019-01-03T08:12:27.035Z,120
2019-01-03T08:13:25.869Z,132
2019-01-03T08:14:24.404Z,144
2019-01-03T08:15:23.124Z,144
2019-01-03T08:16:21.912Z,148
2019-01-03T08:17:20.425Z,148
2019-01-03T08:18:18.963Z,152
2019-01-03T08:19:17.533Z,156
2019-01-03T08:20:16.067Z,160
2019-01-03T08:21:14.608Z,176
2019-01-03T08:22:13.238Z,188
2019-01-03T08:23:12.058Z,204
2019-01-03T08:24:10.595Z,192
2019-01-03T08:25:09.280Z,200
2019-01-03T08:26:08.003Z,212
2019-01-03T08:27:06.572Z,192
2019-01-03T08:28:05.145Z,192
2019-01-03T08:29:03.681Z,200
2019-01-03T08:30:02.220Z,192
2019-01-03T08:31:00.763Z,192
2019-01-03T08:31:59.848Z,196
2019-01-03T08:32:58.673Z,204
2019-01-03T08:33:57.196Z,208
2019-01-03T08:34:55.864Z,200
2019-01-03T08:35:54.428Z,200
2019-01-03T08:36:53.012Z,188
2019-01-03T08:37:51.905Z,188
2019-01-03T08:38:50.463Z,188
2019-01-03T08:39:49.236Z,176
2019-01-03T08:40:47.916Z,184
2019-01-03T08:41:46.442Z,184
2019-01-03T08:42:44.985Z,208
2019-01-03T08:43:43.815Z,212
2019-01-03T08:44:42.357Z,204
2019-01-03T08:45:40.989Z,200
2019-01-03T08:46:39.807Z,192
2019-01-03T08:47:38.351Z,188
2019-01-03T08:48:36.906Z,180
2019-01-03T08:49:35.467Z,164
2019-01-03T08:50:34.028Z,152
2019-01-03T08:51:32.526Z,136
2019-01-03T08:52:31.051Z,128
2019-01-03T08:53:29.840Z,128
2019-01-03T08:54:28.515Z,140
2019-01-03T08:55:27.258Z,144
2019-01-03T08:56:26.026Z,144
2019-01-03T08:57:24.586Z,136
2019-01-03T08:58:23.152Z,136
2019-01-03T08:59:21.671Z,148
2019-01-03T09:00:20.217Z,156
2019-01-03T09:01:18.732Z,172
2019-01-03T09:02:17.321Z,180
2019-01-03T09:03:16.167Z,196
2019-01-03T09:04:14.694Z,220
2019-01-03T09:05:13.656Z,240
2019-01-03T09:06:12.202Z,252
2019-01-03T09:07:10.797Z,268
2019-01-03T09:08:09.908Z,280
2019-01-03T09:09:08.625Z,288
2019-01-03T09:10:07.211Z,284
2019-01-03T09:11:05.742Z,276
2019-01-03T09:12:04.338Z,272
2019-01-03T09:13:02.887Z,264
2019-01-03T09:14:01.458Z,252
2019-01-03T09:15:00.202Z,240
2019-01-03T09:15:58.855Z,236
2019-01-03T09:16:57.544Z,220
2019-01-03T09:17:56.223Z,224
2019-01-03T09:18:54.852Z,224
2019-01-03T09:19:53.417Z,232
2019-01-03T09:20:51.949Z,240
2019-01-03T09:21:50.494Z,268
2019-01-03T09:22:49.104Z,296
2019-01-03T09:23:47.971Z,324
2019-01-03T09:24:46.509Z,336
2019-01-03T09:25:45.116Z,348
2019-01-03T09:26:44.159Z,352
2019-01-03T09:27:42.704Z,356
2019-01-03T09:28:41.202Z,352
2019-01-03T09:29:40.084Z,348
2019-01-03T09:30:39.253Z,332
2019-01-03T09:31:38.039Z,308
2019-01-03T09:32:36.558Z,284
2019-01-03T09:33:35.269Z,260
2019-01-03T09:34:34.070Z,240
2019-01-03T09:35:32.646Z,224
2019-01-03T09:36:31.244Z,208
2019-01-03T09:37:29.964Z,192
2019-01-03T09:38:29.831Z,188
2019-01-03T09:39:27.064Z,200
2019-01-03T09:40:25.905Z,220
2019-01-03T09:41:24.449Z,244
2019-01-03T09:42:23.211Z,240
2019-01-03T09:43:21.791Z,240
2019-01-03T09:44:20.346Z,252
2019-01-03T09:45:19.109Z,272
2019-01-03T09:46:18.000Z,276
2019-01-03T09:47:16.516Z,284
2019-01-03T09:48:15.223Z,304
2019-01-03T09:49:13.834Z,312
2019-01-03T09:50:12.405Z,316
2019-01-03T09:51:11.009Z,312
2019-01-03T09:52:09.873Z,312
2019-01-03T09:53:08.462Z,300
2019-01-03T09:54:07.168Z,276
2019-01-03T09:55:05.892Z,256
2019-01-03T09:56:04.461Z,260
2019-01-03T09:57:03.010Z,260
2019-01-03T09:58:01.560Z,264
2019-01-03T09:59:00.154Z,256
2019-01-03T09:59:58.711Z,248
2019-01-03T10:00:57.258Z,248
2019-01-03T10:01:56.051Z,244
2019-01-03T10:02:54.614Z,244
2019-01-03T10:03:53.324Z,232
2019-01-03T10:04:52.042Z,220
2019-01-03T10:05:50.661Z,212
2019-01-03T10:06:49.207Z,192
2019-01-03T10:07:47.808Z,176
2019-01-03T10:08:46.341Z,164
2019-01-03T10:09:45.256Z,172
2019-01-03T10:10:43.995Z,184
2019-01-03T10:11:42.534Z,196
2019-01-03T10:12:41.194Z,208
2019-01-03T10:13:39.731Z,228
2019-01-03T10:14:38.278Z,240
2019-01-03T10:15:36.837Z,240
2019-01-03T10:16:35.464Z,240
2019-01-03T10:17:34.224Z,236
2019-01-03T10:18:32.803Z,228
2019-01-03T10:19:31.781Z,212
2019-01-03T10:20:30.366Z,208
2019-01-03T10:21:28.913Z,212
2019-01-03T10:22:27.813Z,216
2019-01-03T10:23:26.365Z,216
2019-01-03T10:24:24.948Z,236
2019-01-03T10:25:23.875Z,236
2019-01-03T10:26:22.525Z,228
2019-01-03T10:27:21.075Z,220
2019-01-03T10:28:19.835Z,228
2019-01-03T10:29:18.465Z,240
2019-01-03T10:30:17.069Z,248
2019-01-03T10:31:16.095Z,256
2019-01-03T10:32:14.729Z,264
2019-01-03T10:33:13.226Z,268
2019-01-03T10:34:12.162Z,280
2019-01-03T10:35:10.710Z,396
2019-01-03T10:36:09.410Z,892
2019-01-03T10:37:08.053Z,956
2019-01-03T10:38:06.602Z,996
2019-01-03T10:39:05.163Z,1032
2019-01-03T10:40:03.684Z,1052
2019-01-03T10:41:02.379Z,1084
2019-01-03T10:42:00.869Z,1124
2019-01-03T10:42:59.783Z,1136
2019-01-03T10:43:58.337Z,1104
2019-01-03T10:44:56.931Z,1056
2019-01-03T10:45:55.713Z,1064
2019-01-03T10:46:54.273Z,1104
2019-01-03T10:47:52.798Z,1116
2019-01-03T10:48:51.885Z,1112
2019-01-03T10:49:50.450Z,1024
2019-01-03T10:50:49.141Z,924
2019-01-03T10:51:47.813Z,872
2019-01-03T10:52:46.331Z,852
2019-01-03T10:55:26.380Z,980
2019-01-03T10:56:24.956Z,1032
2019-01-03T10:57:23.920Z,1056
2019-01-03T10:58:22.469Z,1056
2019-01-03T10:59:21.051Z,1048
2019-01-03T11:00:19.744Z,1020
2019-01-03T11:01:18.281Z,992
2019-01-03T11:02:16.932Z,992
2019-01-03T11:03:15.916Z,1032
2019-01-03T11:04:14.494Z,1124
2019-01-03T11:05:13.042Z,1240
2019-01-03T11:06:11.846Z,1268
2019-01-03T11:07:10.396Z,1176
2019-01-03T11:08:08.948Z,1068
2019-01-03T11:09:07.474Z,968
2019-01-03T11:10:06.028Z,900
2019-01-03T11:11:04.593Z,864
2019-01-03T11:12:03.181Z,828
2019-01-03T11:23:37.391Z,828
2019-01-03T11:24:36.001Z,940
2019-01-03T11:25:34.593Z,1120
2019-01-03T11:26:33.159Z,1216
2019-01-03T11:27:32.015Z,1208
2019-01-03T11:28:30.548Z,1120
2019-01-03T11:29:29.140Z,1048
2019-01-03T11:30:28.018Z,1052
2019-01-03T11:31:26.702Z,1060
2019-01-03T11:32:25.227Z,1088
2019-01-03T11:35:09.665Z,1188
2019-01-03T11:36:08.348Z,1176
2019-01-03T11:37:06.959Z,1136
2019-01-03T11:38:05.609Z,1044
2019-01-03T11:39:04.435Z,952
2019-01-03T11:40:03.092Z,900
2019-01-03T11:41:01.950Z,908
2019-01-03T11:42:00.498Z,984
2019-01-03T11:42:59.048Z,1072
2019-01-03T11:43:57.587Z,1120
2019-01-03T11:44:56.102Z,1076
2019-01-03T11:45:54.586Z,1092
2019-01-03T11:46:53.270Z,1152
2019-01-03T11:47:52.103Z,1212
2019-01-03T11:48:50.670Z,1260
2019-01-03T11:49:49.380Z,1260
2019-01-03T11:50:48.018Z,1228
2019-01-03T11:51:46.667Z,1188
2019-01-03T11:52:45.174Z,1220
2019-01-03T11:53:43.762Z,1324
2019-01-03T11:54:42.313Z,1456
2019-01-03T11:55:40.980Z,1592
2019-01-03T11:56:39.849Z,1724
2019-01-03T11:57:38.400Z,1932
2019-01-03T11:58:36.938Z,2164
2019-01-03T11:59:35.770Z,2368
2019-01-03T12:00:34.312Z,2448
2019-01-03T12:01:32.996Z,2324
2019-01-03T12:02:32.068Z,2088
2019-01-03T12:03:30.594Z,1864
2019-01-03T12:04:29.327Z,1676
2019-01-03T12:05:27.905Z,1540
2019-01-03T12:06:26.445Z,1484
2019-01-03T12:07:25.104Z,1412
2019-01-03T12:08:23.932Z,1320
2019-01-03T12:09:22.492Z,1244
2019-01-03T12:10:21.068Z,1164
2019-01-03T12:11:19.918Z,1100
2019-01-03T12:12:18.491Z,1032
2019-01-03T12:13:17.128Z,920
2019-01-03T12:14:15.881Z,876
2019-01-03T12:15:14.460Z,892
2019-01-03T12:16:13.158Z,924
2019-01-03T12:17:11.993Z,960
2019-01-03T12:18:10.600Z,996
2019-01-03T12:19:09.156Z,1116
2019-01-03T12:20:07.661Z,1220
2019-01-03T12:21:06.192Z,1296
2019-01-03T12:22:04.786Z,1432
2019-01-03T12:23:03.782Z,1512
2019-01-03T12:24:02.420Z,1496
2019-01-03T12:25:00.997Z,1428
2019-01-03T12:27:41.358Z,1308
2019-01-03T12:28:40.121Z,1256
2019-01-03T12:29:38.663Z,1176
2019-01-03T12:30:37.322Z,1060
2019-01-03T12:31:38.023Z,992
2019-01-03T12:32:36.552Z,964
2019-01-03T12:33:35.180Z,976
2019-01-03T12:34:33.854Z,1016
2019-01-03T12:35:32.577Z,1072
2019-01-03T12:36:31.376Z,1100
2019-01-03T12:37:30.045Z,1076
2019-01-03T12:38:28.551Z,960
2019-01-03T12:39:27.311Z,828
2019-01-03T12:40:25.911Z,728
2019-01-03T12:41:24.453Z,644
2019-01-03T12:42:22.989Z,584
2019-01-03T12:43:21.949Z,608
2019-01-03T12:44:20.533Z,712
2019-01-03T12:56:03.288Z,1352
2019-01-03T12:57:02.080Z,1240
2019-01-03T12:58:00.725Z,1168
2019-01-03T12:58:59.474Z,1172
2019-01-03T12:59:58.113Z,1224
2019-01-03T13:00:56.643Z,1304
2019-01-03T13:01:55.314Z,1388
2019-01-03T13:02:54.144Z,1416
2019-01-03T13:03:52.749Z,1352
2019-01-03T13:04:51.526Z,1232
2019-01-03T13:05:50.147Z,1084
2019-01-03T13:06:48.678Z,956
2019-01-03T13:07:47.404Z,844
2019-01-03T13:08:49.875Z,760
2019-01-03T13:09:48.758Z,724
2019-01-03T13:10:47.482Z,728
2019-01-03T13:11:46.173Z,780
2019-01-03T13:12:44.828Z,820
2019-01-03T13:13:43.871Z,848
2019-01-03T13:14:42.594Z,860
2019-01-03T13:15:41.208Z,852
2019-01-03T13:16:39.804Z,812
2019-01-03T13:17:38.363Z,792
2019-01-03T13:18:36.948Z,816
2019-01-03T13:19:35.906Z,840
2019-01-03T13:20:34.437Z,832
2019-01-03T13:21:33.086Z,824
2019-01-03T13:22:32.542Z,812
2019-01-03T13:23:31.197Z,764
2019-01-03T13:24:29.915Z,700
2019-01-03T13:25:28.425Z,648
2019-01-03T13:26:26.947Z,584
2019-01-03T13:27:25.958Z,516
2019-01-03T13:28:24.509Z,484
2019-01-03T13:29:23.066Z,488
2019-01-03T13:30:21.900Z,488
2019-01-03T13:31:20.599Z,472
2019-01-03T13:32:19.126Z,456
2019-01-03T13:33:18.028Z,432
2019-01-03T13:34:16.553Z,384
2019-01-03T13:35:15.087Z,348
2019-01-03T13:36:13.906Z,336
2019-01-03T13:37:12.435Z,316
2019-01-03T13:38:10.994Z,328
2019-01-03T13:39:09.641Z,352
2019-01-03T13:40:08.240Z,388
2019-01-03T13:41:06.795Z,432
2019-01-03T13:42:05.766Z,508
2019-01-03T13:43:04.458Z,616
2019-01-03T13:44:02.989Z,696
2019-01-03T13:45:01.591Z,780
2019-01-03T13:46:00.206Z,816
2019-01-03T13:49:39.264Z,808
2019-01-03T13:50:38.097Z,704
2019-01-03T13:51:36.677Z,636
2019-01-03T13:52:35.212Z,572
2019-01-03T13:53:34.110Z,544
2019-01-03T13:54:32.684Z,536
2019-01-03T13:55:31.456Z,520
2019-01-03T13:56:30.284Z,480
2019-01-03T13:57:28.827Z,456
2019-01-03T13:58:27.522Z,480
2019-01-03T13:59:26.768Z,528
2019-01-03T14:00:24.949Z,540
2019-01-03T14:01:23.732Z,512
2019-01-03T14:02:22.412Z,496
2019-01-03T14:03:21.398Z,552
2019-01-03T14:04:20.133Z,664
2019-01-03T14:05:18.820Z,628
2019-01-03T14:06:17.388Z,492
2019-01-03T14:18:08.397Z,164
2019-01-03T14:19:06.997Z,140
2019-01-03T14:20:05.981Z,132
2019-01-03T14:21:04.654Z,140
2019-01-03T14:22:03.358Z,144
2019-01-03T14:23:02.886Z,156
2019-01-03T14:24:01.467Z,192
2019-01-03T14:25:00.084Z,240
2019-01-03T14:25:58.608Z,256
2019-01-03T14:26:57.577Z,240
2019-01-03T14:27:56.360Z,220
2019-01-03T14:28:54.892Z,208
2019-01-03T14:29:53.500Z,204
2019-01-03T14:30:52.032Z,216
2019-01-03T14:33:27.083Z,232
2019-01-03T14:34:25.622Z,244
2019-01-03T14:35:24.268Z,256
2019-01-03T14:36:22.861Z,232
2019-01-03T14:37:21.466Z,208
2019-01-03T14:38:20.164Z,204
2019-01-03T14:39:18.741Z,216
2019-01-03T14:40:17.346Z,212
2019-01-03T14:41:16.167Z,228
2019-01-03T14:42:14.693Z,240
2019-01-03T14:44:59.112Z,176
2019-01-03T14:45:57.730Z,160
2019-01-03T14:46:56.391Z,148
2019-01-03T14:47:54.907Z,132
2019-01-03T14:48:53.546Z,120
2019-01-03T14:49:52.120Z,120
2019-01-03T14:50:50.667Z,116
2019-01-03T14:51:50.456Z,112
2019-01-03T14:52:48.953Z,120
2019-01-03T14:53:47.841Z,132
2019-01-03T14:54:46.481Z,136
2019-01-03T14:55:45.048Z,136
2019-01-03T14:56:43.757Z,136
2019-01-03T14:57:42.437Z,148
2019-01-03T14:58:40.975Z,144
2019-01-03T14:59:39.797Z,140
2019-01-03T15:00:38.344Z,136
2019-01-03T15:01:36.960Z,128
2019-01-03T15:02:35.757Z,120
2019-01-03T15:03:34.281Z,116